D/T METAR WX W/DIR W/SPE G/SPE TEMP DEWP
20/06/19 16:50 EGBJ 201550Z 29009KT 9999 VCSH SCT031 18/09 Q1013 VCSH WNW (290°) 10.4mph 18°C 9°C
20/06/19 16:20 EGBJ 201520Z 28008KT 9999 -SHRA SCT031 17/08 Q1012 -SHRA W (280°) 9.2mph 17°C 8°C
20/06/19 15:50 EGBJ 201450Z 29005KT 250V310 9999 SCT031 18/09 Q1012 WNW (290°) 5.8mph 18°C 9°C
20/06/19 15:20 EGBJ 201420Z 32006KT 9999 VCSH FEW022 SCT038 17/10 Q1012 VCSH NW (320°) 6.9mph 17°C 10°C
20/06/19 14:50 EGBJ 201350Z 24006KT 190V270 9999 VCSH FEW025TCU SCT040 18/09 Q1012 VCSH WSW (240°) 6.9mph 18°C 9°C
20/06/19 14:20 EGBJ 201320Z 24007KT 200V290 9999 VCSH FEW020 FEW027TCU SCT029 18/09 Q1012 VCSH WSW (240°) 8.1mph 18°C 9°C
20/06/19 13:50 EGBJ 201250Z 24007KT 200V290 9999 VCSH FEW021 SCT026 18/09 Q1012 VCSH WSW (240°) 8.1mph 18°C 9°C
20/06/19 12:50 EGBJ 201150Z 22012KT 9999 VCSH FEW018 SCT026 17/10 Q1012 VCSH SW (220°) 13.8mph 17°C 10°C
20/06/19 12:20 EGBJ 201120Z 22011KT 190V250 9999 FEW021 SCT026 16/10 Q1012 SW (220°) 12.7mph 16°C 10°C
20/06/19 11:50 EGBJ 201050Z 22010KT 190V250 9999 VCSH FEW021 SCT026 16/10 Q1012 VCSH SW (220°) 11.5mph 16°C 10°C
20/06/19 11:20 EGBJ 201020Z 22009KT 9999 FEW019 SCT024 16/11 Q1012 SW (220°) 10.4mph 16°C 11°C
20/06/19 10:50 EGBJ 200950Z 24008KT 190V280 9999 FEW022 SCT031 17/11 Q1012 WSW (240°) 9.2mph 17°C 11°C
20/06/19 10:20 EGBJ 200920Z 27008KT 220V300 9999 FEW020 SCT030 17/10 Q1012 W (270°) 9.2mph 17°C 10°C
20/06/19 09:50 EGBJ 200850Z 25006KT 220V280 9999 FEW020 SCT029 16/11 Q1012 WSW (250°) 6.9mph 16°C 11°C
20/06/19 09:20 EGBJ 200820Z 24005KT 200V270 9999 FEW029 15/12 Q1011 WSW (240°) 5.8mph 15°C 12°C
20/06/19 08:50 EGBJ 200750Z 23005KT 190V270 9999 FEW027 15/12 Q1011 SW (230°) 5.8mph 15°C 12°C
20/06/19 08:20 EGBJ 200720Z 23007KT 9999 FEW023 14/11 Q1011 SW (230°) 8.1mph 14°C 11°C
20/06/19 07:50 EGBJ 200650Z 23004KT 210V270 9999 FEW027 14/12 Q1011 SW (230°) 4.6mph 14°C 12°C
20/06/19 07:20 EGBJ 200620Z 23005KT 9999 FEW024 13/11 Q1011 SW (230°) 5.8mph 13°C 11°C
20/06/19 06:50 EGBJ 200550Z 23006KT 9999 FEW029 13/11 Q1011 SW (230°) 6.9mph 13°C 11°C
19/06/19 18:50 EGBJ 191750Z 22003KT 9999 FEW018 SCT040 17/14 Q1008 SW (220°) 3.5mph 17°C 14°C
19/06/19 18:20 EGBJ 191720Z 00000KT 9999 FEW018 SCT040 18/14 Q1008 N (0°) 18°C 14°C
19/06/19 17:20 EGBJ 191620Z 00000KT 9999 FEW018 SCT040 18/13 Q1008 N (0°) 18°C 13°C
19/06/19 16:50 EGBJ 191550Z 00000KT 9999 FEW018 BKN044 17/14 Q1008 N (0°) 17°C 14°C
19/06/19 16:20 EGBJ 191520Z 00000KT 9000 VCSH FEW013 BKN044 16/14 Q1008 VCSH N (0°) 16°C 14°C
19/06/19 15:20 EGBJ 191420Z 26002KT 9000 VCSH FEW013 BKN044 16/14 Q1008 VCSH W (260°) 2.3mph 16°C 14°C
19/06/19 14:50 EGBJ 191350Z 00000KT 9999 3000W VCSH FEW012 SCT025 BKN044 17/13 Q1008 VCSH N (0°) 17°C 13°C
19/06/19 13:50 EGBJ 191250Z 00000KT 9999 VCSH FEW012 BKN044 16/13 Q1008 VCSH N (0°) 16°C 13°C
19/06/19 13:20 EGBJ 191220Z 00000KT 9999 VCSH FEW010 SCT015 OVC025 16/14 Q1008 VCSH N (0°) 16°C 14°C
19/06/19 12:20 EGBJ 191120Z 01003KT 9999 VCSH FEW009 BKN011 16/14 Q1008 VCSH N (10°) 3.5mph 16°C 14°C
19/06/19 11:20 EGBJ 191020Z 01004KT 9999 FEW010 BKN014 16/14 Q1008 N (10°) 4.6mph 16°C 14°C
19/06/19 10:50 EGBJ 190950Z 01003KT 9999 FEW009 BKN014 16/14 Q1008 N (10°) 3.5mph 16°C 14°C
19/06/19 10:20 EGBJ 190920Z 00000KT 9999 FEW009 BKN014 16/13 Q1008 N (0°) 16°C 13°C
19/06/19 09:50 EGBJ 190850Z 36003KT 9999 BKN010 OVC015 16/14 Q1008 N (360°) 3.5mph 16°C 14°C
19/06/19 08:50 EGBJ 190750Z 33005KT 9000 BKN007 OVC012 15/14 Q1008 NNW (330°) 5.8mph 15°C 14°C
19/06/19 08:20 EGBJ 190720Z 34003KT 8000 BKN006 OVC012 15/14 Q1008 NNW (340°) 3.5mph 15°C 14°C
19/06/19 07:50 EGBJ 190650Z 32002KT 7000 BKN005 OVC012 14/14 Q1008 NW (320°) 2.3mph 14°C 14°C
19/06/19 07:20 EGBJ 190620Z 00000KT 5000 BKN004 OVC012 14/14 Q1008 N (0°) 14°C 14°C
19/06/19 06:50 EGBJ 190550Z 33002KT 5000 BKN004 OVC010 14/14 Q1007 NNW (330°) 2.3mph 14°C 14°C
18/06/19 18:20 EGBJ 181720Z 00000KT 9999 -RA FEW009 15/14 Q1011 -RA N (0°) 15°C 14°C
18/06/19 17:50 EGBJ 181650Z 00000KT 9999 -RA FEW025 SCT035 15/14 Q1012 -RA N (0°) 15°C 14°C
18/06/19 17:20 EGBJ 181620Z 00000KT 9999 -RA FEW025 SCT035 15/13 Q1012 -RA N (0°) 15°C 13°C
18/06/19 16:50 EGBJ 181550Z 00000KT 6000 RA FEW025 15/13 Q1012 RA N (0°) 15°C 13°C
18/06/19 16:20 EGBJ 181520Z 18002KT 6000 RA FEW025 16/13 Q1013 RA S (180°) 2.3mph 16°C 13°C
18/06/19 15:50 EGBJ 181450Z 18002KT 9000 RA FEW025 16/12 Q1013 RA S (180°) 2.3mph 16°C 12°C
18/06/19 15:20 EGBJ 181420Z 11002KT 9999 FEW035 17/11 Q1013 ESE (110°) 2.3mph 17°C 11°C
18/06/19 14:20 EGBJ 181320Z 19002KT 9999 -RA FEW024 SCT032 16/13 Q1013 -RA S (190°) 2.3mph 16°C 13°C
18/06/19 13:50 EGBJ 181250Z 16005KT 9999 -RA FEW024 SCT031 BKN049 16/12 Q1013 -RA SSE (160°) 5.8mph 16°C 12°C